Time;durP1;ratioP1;P1;durP2;ratioP2;P2;SDS_P1;SDS_P2;PMS_P1;PMS_P2;Temp;Humidity;BMP_temperature;BMP_pressure;BME280_temperature;BME280_humidity;BME280_pressure;Samples;Min_cycle;Max_cycle;Signal;HPM_P1;HPM_P2
2021/08/25 00:02:16;;;;;;;13.17;11.77;;;14.20;99.90;;;;;;5085341;28;20628;-79
2021/08/25 00:04:44;;;;;;;12.30;11.13;;;14.20;99.90;;;;;;5075018;28;20649;-79
2021/08/25 00:07:12;;;;;;;12.70;11.50;;;14.10;99.90;;;;;;5079625;28;20992;-79
2021/08/25 00:09:41;;;;;;;13.30;11.90;;;14.10;99.90;;;;;;5089498;28;20621;-78
2021/08/25 00:12:09;;;;;;;12.77;11.40;;;14.00;99.90;;;;;;5089323;28;20677;-79
2021/08/25 00:14:38;;;;;;;12.90;11.60;;;14.10;99.90;;;;;;5087090;28;20605;-78
2021/08/25 00:17:05;;;;;;;12.83;11.37;;;14.10;99.90;;;;;;5068981;28;20614;-78
2021/08/25 00:19:32;;;;;;;12.47;11.20;;;14.00;99.90;;;;;;5082423;28;20632;-78
2021/08/25 00:21:59;;;;;;;11.97;10.73;;;13.90;99.90;;;;;;5088522;28;20615;-79
2021/08/25 00:24:27;;;;;;;13.40;12.03;;;13.90;99.90;;;;;;5085072;28;20665;-79
2021/08/25 00:26:54;;;;;;;13.80;12.50;;;13.80;99.90;;;;;;5077148;28;20663;-79
2021/08/25 00:29:21;;;;;;;13.40;11.27;;;13.80;99.90;;;;;;5077926;28;20677;-79
2021/08/25 00:31:48;;;;;;;13.03;11.83;;;13.90;99.90;;;;;;5069505;28;20621;-79
2021/08/25 00:34:15;;;;;;;15.53;11.80;;;13.90;99.90;;;;;;5086472;28;20604;-79
2021/08/25 00:36:42;;;;;;;14.13;12.73;;;13.90;99.90;;;;;;5088678;28;20638;-79
2021/08/25 00:39:09;;;;;;;14.17;12.50;;;13.90;99.90;;;;;;5087936;28;20609;-79
2021/08/25 00:41:37;;;;;;;13.43;12.00;;;13.80;99.90;;;;;;5087589;28;20732;-79
2021/08/25 00:44:05;;;;;;;12.60;11.40;;;13.80;99.90;;;;;;5089046;28;21032;-78
2021/08/25 00:46:34;;;;;;;16.60;12.00;;;13.70;99.90;;;;;;5086952;28;20695;-79
2021/08/25 00:49:01;;;;;;;13.80;12.50;;;13.70;99.90;;;;;;5085460;28;20626;-79
2021/08/25 00:51:28;;;;;;;16.40;11.37;;;13.70;99.90;;;;;;5073866;28;20712;-79
2021/08/25 00:53:57;;;;;;;14.60;13.10;;;13.80;99.90;;;;;;5067990;28;20653;-79
2021/08/25 00:56:25;;;;;;;12.23;10.93;;;13.70;99.90;;;;;;5077984;28;20624;-79
2021/08/25 00:58:53;;;;;;;13.13;10.77;;;13.60;99.90;;;;;;5079558;28;20615;-79
2021/08/25 01:01:31;;;;;;;14.20;12.17;;;13.40;99.90;;;;;;5077133;28;20620;-79
2021/08/25 01:04:02;;;;;;;14.97;11.40;;;13.30;99.90;;;;;;5088614;28;20619;-78
2021/08/25 01:06:32;;;;;;;13.10;11.73;;;13.30;99.90;;;;;;5087337;28;20702;-78
2021/08/25 01:09:03;;;;;;;13.67;12.23;;;13.20;99.90;;;;;;5073556;28;20647;-79
2021/08/25 01:11:33;;;;;;;13.87;12.47;;;13.30;99.90;;;;;;5087598;28;20631;-79
2021/08/25 01:14:03;;;;;;;13.30;12.10;;;13.20;99.90;;;;;;5087970;28;20723;-79
2021/08/25 01:16:32;;;;;;;14.47;12.17;;;13.20;99.90;;;;;;5079827;28;20636;-78
2021/08/25 01:19:00;;;;;;;12.40;11.13;;;13.20;99.90;;;;;;5072881;28;20681;-79
2021/08/25 01:21:29;;;;;;;12.10;10.90;;;13.20;99.90;;;;;;5086992;28;21169;-79
2021/08/25 01:23:58;;;;;;;13.67;12.23;;;13.10;99.90;;;;;;5086432;28;20621;-79
2021/08/25 01:26:26;;;;;;;12.37;11.07;;;13.10;99.90;;;;;;5088238;28;20664;-79
2021/08/25 01:28:57;;;;;;;12.93;11.60;;;13.00;99.90;;;;;;5078350;28;20654;-79
2021/08/25 01:31:29;;;;;;;12.57;11.27;;;13.00;99.90;;;;;;5067861;28;20613;-78
2021/08/25 01:34:05;;;;;;;13.13;11.83;;;12.90;99.90;;;;;;5085200;28;20994;-79
2021/08/25 01:36:33;;;;;;;12.90;11.60;;;12.80;99.90;;;;;;5087612;28;20819;-79
2021/08/25 01:39:02;;;;;;;12.73;11.43;;;12.80;99.90;;;;;;5086170;28;20694;-79
2021/08/25 01:41:30;;;;;;;11.80;10.70;;;12.80;99.90;;;;;;5076844;28;21032;-79
2021/08/25 01:44:02;;;;;;;11.80;10.70;;;12.70;99.90;;;;;;5083772;28;20619;-79
2021/08/25 01:46:35;;;;;;;11.83;10.73;;;12.70;99.90;;;;;;5086630;28;20665;-78
2021/08/25 01:49:07;;;;;;;12.93;11.50;;;12.70;99.90;;;;;;5076680;28;20742;-79
2021/08/25 01:51:41;;;;;;;12.00;10.80;;;12.70;99.90;;;;;;5067417;28;20735;-79
2021/08/25 01:54:11;;;;;;;13.10;11.80;;;12.60;99.90;;;;;;5066856;28;20636;-79
2021/08/25 01:56:40;;;;;;;11.40;10.20;;;12.60;99.90;;;;;;5067342;28;20626;-79
2021/08/25 01:59:08;;;;;;;12.30;11.03;;;12.50;99.90;;;;;;5072697;28;20635;-79
2021/08/25 02:01:37;;;;;;;12.37;11.17;;;12.50;99.90;;;;;;5075976;28;21211;-79
2021/08/25 02:04:06;;;;;;;11.40;10.30;;;12.50;99.90;;;;;;5059245;28;21024;-79
2021/08/25 02:06:35;;;;;;;12.83;11.43;;;12.40;99.90;;;;;;5075946;28;20678;-79
2021/08/25 02:09:05;;;;;;;11.50;10.30;;;12.30;99.90;;;;;;5078195;28;20618;-79
2021/08/25 02:11:34;;;;;;;12.60;10.50;;;12.20;99.90;;;;;;5073797;28;20992;-79
2021/08/25 02:14:02;;;;;;;13.90;12.00;;;12.20;99.90;;;;;;5088197;28;21234;-79
2021/08/25 02:16:31;;;;;;;13.93;11.33;;;12.20;99.90;;;;;;5075128;28;20649;-79
2021/08/25 02:19:00;;;;;;;13.67;12.27;;;12.20;99.90;;;;;;5076810;28;20654;-79
2021/08/25 02:21:30;;;;;;;15.17;11.80;;;12.10;99.90;;;;;;5085233;28;20627;-79
2021/08/25 02:23:59;;;;;;;13.23;11.93;;;12.10;99.90;;;;;;5069454;28;20661;-79
2021/08/25 02:26:29;;;;;;;13.87;11.33;;;12.10;99.90;;;;;;5084132;28;20661;-79
2021/08/25 02:28:57;;;;;;;12.83;11.53;;;12.10;99.90;;;;;;5084524;28;20632;-79
2021/08/25 02:31:26;;;;;;;12.63;10.30;;;12.00;99.90;;;;;;5085070;28;20694;-79
2021/08/25 02:33:54;;;;;;;11.73;10.60;;;12.00;99.90;;;;;;5089854;28;20631;-79
2021/08/25 02:36:23;;;;;;;13.73;12.20;;;11.90;99.90;;;;;;5090487;28;20632;-79
2021/08/25 02:38:51;;;;;;;12.40;11.20;;;11.70;99.90;;;;;;5089882;28;20626;-79
2021/08/25 02:41:20;;;;;;;12.77;11.47;;;11.70;99.90;;;;;;5084639;28;20640;-79
2021/08/25 02:44:02;;;;;;;15.13;11.63;;;11.70;99.90;;;;;;5071218;28;20976;-79
2021/08/25 02:46:35;;;;;;;13.27;11.40;;;11.70;99.90;;;;;;5091266;28;20663;-79
2021/08/25 02:49:03;;;;;;;13.57;12.17;;;11.70;99.90;;;;;;5090427;28;20616;-79
2021/08/25 02:51:33;;;;;;;13.27;11.97;;;11.70;99.90;;;;;;5081713;28;20629;-79
2021/08/25 02:54:02;;;;;;;13.50;12.13;;;11.70;99.90;;;;;;5070658;28;20683;-78
2021/08/25 02:56:30;;;;;;;15.73;13.40;;;11.80;99.90;;;;;;5079250;28;20751;-77
2021/08/25 02:58:58;;;;;;;15.43;12.97;;;11.80;99.90;;;;;;5083377;28;21125;-77
2021/08/25 03:01:24;;;;;;;14.23;12.77;;;11.90;99.90;;;;;;5080692;28;20613;-77
2021/08/25 03:03:52;;;;;;;14.03;12.20;;;11.90;99.90;;;;;;5088344;28;20622;-77
2021/08/25 03:06:18;;;;;;;15.90;13.93;;;11.90;99.90;;;;;;5091261;28;20624;-77
2021/08/25 03:08:47;;;;;;;15.60;13.97;;;11.90;99.90;;;;;;5078046;28;20956;-77
2021/08/25 03:11:14;;;;;;;13.93;12.53;;;12.00;99.90;;;;;;5075440;28;20687;-77
2021/08/25 03:13:41;;;;;;;15.43;13.30;;;12.00;99.90;;;;;;5082251;28;20705;-78
2021/08/25 03:16:08;;;;;;;13.80;12.40;;;12.00;99.90;;;;;;5088795;28;20682;-78
2021/08/25 03:18:35;;;;;;;17.90;14.20;;;12.00;99.90;;;;;;5088322;28;20663;-78
2021/08/25 03:21:02;;;;;;;13.47;12.00;;;12.00;99.90;;;;;;5070660;28;20622;-78
2021/08/25 03:23:29;;;;;;;13.53;12.23;;;11.90;99.90;;;;;;5071531;28;20616;-78
2021/08/25 03:25:58;;;;;;;14.53;12.67;;;11.90;99.90;;;;;;5074160;28;20949;-77
2021/08/25 03:28:25;;;;;;;13.47;12.07;;;12.00;99.90;;;;;;5084398;28;20660;-78
2021/08/25 03:30:56;;;;;;;13.67;12.27;;;11.90;99.90;;;;;;5070193;28;20634;-78
2021/08/25 03:33:23;;;;;;;13.43;11.53;;;11.80;99.90;;;;;;5083417;28;20617;-77
2021/08/25 03:36:00;;;;;;;15.00;13.30;;;11.80;99.90;;;;;;5091059;28;20632;-81
2021/08/25 03:38:27;;;;;;;18.23;12.43;;;11.70;99.90;;;;;;5089740;28;20631;-79
2021/08/25 03:40:54;;;;;;;13.17;11.80;;;11.70;99.90;;;;;;5089372;28;20627;-79
2021/08/25 03:43:22;;;;;;;13.17;11.77;;;11.70;99.90;;;;;;5088232;28;20606;-79
2021/08/25 03:45:50;;;;;;;14.07;12.67;;;11.70;99.90;;;;;;5081203;28;21036;-78
2021/08/25 03:48:16;;;;;;;14.17;12.57;;;11.70;99.90;;;;;;5090450;28;21230;-79
2021/08/25 03:50:43;;;;;;;13.03;11.73;;;11.70;99.90;;;;;;5089279;28;20621;-79
2021/08/25 03:53:10;;;;;;;13.37;11.97;;;11.60;99.90;;;;;;5081119;28;20686;-79
2021/08/25 03:55:37;;;;;;;16.03;12.67;;;11.50;99.90;;;;;;5090361;28;20678;-80
2021/08/25 03:58:05;;;;;;;15.87;13.47;;;11.50;99.90;;;;;;5089800;28;20609;-80
2021/08/25 04:00:33;;;;;;;13.70;12.23;;;11.50;99.90;;;;;;5077769;28;20609;-77
2021/08/25 04:03:00;;;;;;;14.43;13.00;;;11.50;99.90;;;;;;5090319;28;21017;-77
2021/08/25 04:05:27;;;;;;;14.30;12.80;;;11.50;99.90;;;;;;5087801;28;21240;-78
2021/08/25 04:07:54;;;;;;;13.30;11.60;;;11.50;99.90;;;;;;5088925;28;20648;-78
2021/08/25 04:10:21;;;;;;;25.23;11.67;;;11.40;99.90;;;;;;5084470;28;20748;-78
2021/08/25 04:12:48;;;;;;;14.13;12.23;;;11.30;99.90;;;;;;5089370;28;21100;-78
2021/08/25 04:15:15;;;;;;;14.33;12.93;;;11.30;99.90;;;;;;5085345;28;21028;-78
2021/08/25 04:17:43;;;;;;;16.37;13.80;;;11.20;99.90;;;;;;5075585;28;20629;-78
2021/08/25 04:20:11;;;;;;;14.37;11.83;;;11.30;99.90;;;;;;5082564;28;20625;-78
2021/08/25 04:22:38;;;;;;;14.43;12.53;;;11.30;99.90;;;;;;5084610;28;21162;-78
2021/08/25 04:25:06;;;;;;;15.20;12.60;;;11.30;99.90;;;;;;5069673;28;20649;-78
2021/08/25 04:27:33;;;;;;;15.17;12.10;;;11.20;99.90;;;;;;5090526;28;20660;-78
2021/08/25 04:29:59;;;;;;;13.90;12.40;;;11.20;99.90;;;;;;5088967;28;20705;-78
2021/08/25 04:32:26;;;;;;;13.03;11.33;;;11.20;99.90;;;;;;5086116;28;20732;-78
2021/08/25 04:34:54;;;;;;;13.67;12.07;;;11.10;99.90;;;;;;5088553;28;20669;-78
2021/08/25 04:37:21;;;;;;;15.37;13.47;;;11.10;99.90;;;;;;5089913;28;20674;-78
2021/08/25 04:39:48;;;;;;;14.50;12.93;;;11.10;99.90;;;;;;5089288;28;20717;-78
2021/08/25 04:42:15;;;;;;;14.33;12.73;;;11.10;99.90;;;;;;5088617;28;20659;-78
2021/08/25 04:44:42;;;;;;;15.90;13.20;;;11.10;99.90;;;;;;5089167;28;20636;-79
2021/08/25 04:47:09;;;;;;;16.47;14.10;;;11.20;99.90;;;;;;5089911;28;20732;-78
2021/08/25 04:49:36;;;;;;;14.37;12.70;;;11.20;99.90;;;;;;5089582;28;20617;-78
2021/08/25 04:52:05;;;;;;;14.10;12.67;;;11.20;99.90;;;;;;5078139;28;20663;-78
2021/08/25 04:54:31;;;;;;;14.70;12.70;;;11.20;99.90;;;;;;5079343;28;20679;-78
2021/08/25 04:56:58;;;;;;;16.00;12.50;;;11.20;99.90;;;;;;5088438;28;20698;-78
2021/08/25 04:59:25;;;;;;;14.77;13.27;;;11.10;99.90;;;;;;5076599;28;20625;-78
2021/08/25 05:01:52;;;;;;;15.07;13.30;;;11.00;99.90;;;;;;5082540;28;21504;-79
2021/08/25 05:04:19;;;;;;;15.83;13.90;;;11.10;99.90;;;;;;5090360;28;20720;-79
2021/08/25 05:06:46;;;;;;;16.50;14.17;;;11.10;99.90;;;;;;5084760;28;20709;-78
2021/08/25 05:09:14;;;;;;;17.37;15.60;;;11.20;99.90;;;;;;5083995;28;21245;-78
2021/08/25 05:11:41;;;;;;;15.67;13.97;;;11.20;99.90;;;;;;5069354;28;20618;-79
2021/08/25 05:14:08;;;;;;;16.40;14.63;;;11.20;99.90;;;;;;5081849;28;20706;-79
2021/08/25 05:16:35;;;;;;;16.70;13.93;;;11.20;99.90;;;;;;5083846;28;20666;-79
2021/08/25 05:19:02;;;;;;;15.17;13.67;;;11.30;99.90;;;;;;5084285;28;20669;-78
2021/08/25 05:21:29;;;;;;;16.70;12.30;;;11.30;99.90;;;;;;5084362;28;21165;-78
2021/08/25 05:23:56;;;;;;;17.30;13.33;;;11.30;99.90;;;;;;5078754;28;21063;-79
2021/08/25 05:26:24;;;;;;;16.80;13.43;;;11.40;99.90;;;;;;5074893;28;20621;-78
2021/08/25 05:28:51;;;;;;;15.60;13.70;;;11.40;99.90;;;;;;5072896;28;20664;-79
2021/08/25 05:31:18;;;;;;;16.80;14.20;;;11.50;99.90;;;;;;5079274;28;20760;-79
2021/08/25 05:33:45;;;;;;;13.57;12.17;;;11.50;99.90;;;;;;5080427;28;21020;-79
2021/08/25 05:36:12;;;;;;;15.87;14.17;;;11.50;99.90;;;;;;5089879;28;20681;-79
2021/08/25 05:38:39;;;;;;;17.43;13.70;;;11.50;99.90;;;;;;5087025;28;20641;-79
2021/08/25 05:41:05;;;;;;;18.17;13.70;;;11.60;99.90;;;;;;5084460;28;21255;-79
2021/08/25 05:43:34;;;;;;;16.50;14.03;;;11.60;99.90;;;;;;5077110;28;20678;-79
2021/08/25 05:46:02;;;;;;;16.70;14.10;;;11.60;99.90;;;;;;5088457;28;20625;-78
2021/08/25 05:48:29;;;;;;;15.50;13.63;;;11.70;99.90;;;;;;5073313;28;21199;-79
2021/08/25 05:50:56;;;;;;;18.13;16.10;;;11.70;99.90;;;;;;5079408;28;20621;-79
2021/08/25 05:53:23;;;;;;;17.10;15.20;;;11.80;99.90;;;;;;5077315;28;20614;-79
2021/08/25 05:55:50;;;;;;;17.77;15.70;;;11.80;99.90;;;;;;5079575;28;20614;-79
2021/08/25 05:58:17;;;;;;;18.57;15.80;;;11.90;99.90;;;;;;5086391;28;20672;-79
2021/08/25 06:00:56;;;;;;;16.00;14.00;;;12.00;99.90;;;;;;5077684;28;20657;-81
2021/08/25 06:03:23;;;;;;;17.20;15.40;;;12.10;99.90;;;;;;5082244;28;20617;-80
2021/08/25 06:05:53;;;;;;;16.77;15.00;;;12.10;99.90;;;;;;5082604;28;20683;-80
2021/08/25 06:08:20;;;;;;;16.07;14.37;;;12.20;99.90;;;;;;5081773;28;20698;-80
2021/08/25 06:10:47;;;;;;;17.23;15.53;;;12.20;99.90;;;;;;5078081;28;20647;-80
2021/08/25 06:13:14;;;;;;;17.07;14.90;;;12.30;99.90;;;;;;5080164;28;20623;-80
2021/08/25 06:15:41;;;;;;;16.73;14.93;;;12.40;99.90;;;;;;5082667;28;20634;-80
2021/08/25 06:18:09;;;;;;;17.97;16.07;;;12.50;99.90;;;;;;5084342;28;20638;-80
2021/08/25 06:20:37;;;;;;;15.97;14.37;;;12.50;99.90;;;;;;5079657;28;20622;-80
2021/08/25 06:23:04;;;;;;;15.63;13.93;;;12.60;99.90;;;;;;5088137;28;20637;-80
2021/08/25 06:25:31;;;;;;;17.40;14.87;;;12.70;99.90;;;;;;5089525;28;21031;-79
2021/08/25 06:27:59;;;;;;;18.07;13.90;;;12.80;99.90;;;;;;5080702;28;20657;-80
2021/08/25 06:30:26;;;;;;;14.77;12.97;;;12.90;99.90;;;;;;5082718;28;20705;-80
2021/08/25 06:32:56;;;;;;;13.20;11.80;;;12.90;99.90;;;;;;5083831;28;20620;-80
2021/08/25 06:35:24;;;;;;;14.17;12.73;;;13.20;99.90;;;;;;5080371;28;20614;-79
2021/08/25 06:37:51;;;;;;;13.20;11.90;;;13.30;99.90;;;;;;5079791;28;20624;-80
2021/08/25 06:40:18;;;;;;;14.17;11.20;;;13.50;99.90;;;;;;5081697;28;20632;-80
2021/08/25 06:42:45;;;;;;;15.57;11.83;;;13.70;99.90;;;;;;5083301;28;20620;-79
2021/08/25 06:45:12;;;;;;;11.67;10.57;;;13.80;99.90;;;;;;5084004;28;20615;-79
2021/08/25 06:47:40;;;;;;;11.87;10.67;;;14.00;99.90;;;;;;5076128;28;20620;-80
2021/08/25 06:50:07;;;;;;;10.40;9.40;;;14.20;99.90;;;;;;5083942;28;21016;-80
2021/08/25 06:52:37;;;;;;;11.67;9.97;;;14.30;99.90;;;;;;5081929;28;20622;-80
2021/08/25 06:55:05;;;;;;;15.30;10.47;;;14.40;99.90;;;;;;5074550;28;20705;-81
2021/08/25 06:57:32;;;;;;;11.63;10.63;;;14.60;99.90;;;;;;5079188;28;20614;-81
2021/08/25 06:59:59;;;;;;;13.57;9.37;;;14.80;99.90;;;;;;5081615;28;20618;-81
2021/08/25 07:02:26;;;;;;;10.50;9.10;;;14.80;99.90;;;;;;5079410;28;20671;-80
2021/08/25 07:04:53;;;;;;;9.50;8.53;;;14.90;99.90;;;;;;5079705;28;21240;-80
2021/08/25 07:07:19;;;;;;;9.60;8.60;;;14.80;99.90;;;;;;5078623;28;21323;-80
2021/08/25 07:09:49;;;;;;;10.97;9.93;;;14.90;99.90;;;;;;5076512;28;20672;-80
2021/08/25 07:12:16;;;;;;;10.47;9.50;;;15.10;99.90;;;;;;5082167;28;20690;-81
2021/08/25 07:14:43;;;;;;;10.43;9.03;;;15.20;99.90;;;;;;5081142;28;20644;-80
2021/08/25 07:17:10;;;;;;;9.80;7.93;;;15.30;99.90;;;;;;5080229;28;20609;-80
2021/08/25 07:19:37;;;;;;;8.60;7.80;;;15.50;99.90;;;;;;5079786;28;20671;-80
2021/08/25 07:22:04;;;;;;;9.93;7.70;;;15.70;99.90;;;;;;5078843;28;20688;-80
2021/08/25 07:24:32;;;;;;;9.93;8.10;;;15.70;99.90;;;;;;5081009;28;21244;-81
2021/08/25 07:27:00;;;;;;;8.50;7.60;;;15.70;99.90;;;;;;5082095;28;20623;-79
2021/08/25 07:29:27;;;;;;;7.67;6.87;;;15.80;99.90;;;;;;5080527;28;20678;-79
2021/08/25 07:31:54;;;;;;;10.17;7.53;;;15.90;99.90;;;;;;5080373;28;20704;-79
2021/08/25 07:34:21;;;;;;;9.40;7.30;;;16.10;99.90;;;;;;5079609;28;21111;-79
2021/08/25 07:36:48;;;;;;;9.00;8.10;;;16.20;99.90;;;;;;5075962;28;20617;-81
2021/08/25 07:39:16;;;;;;;9.33;7.90;;;16.30;99.80;;;;;;5078465;28;20673;-79
2021/08/25 07:41:42;;;;;;;7.77;6.90;;;16.30;98.90;;;;;;5080923;28;20675;-78
2021/08/25 07:44:11;;;;;;;8.67;7.80;;;16.50;99.10;;;;;;5080274;28;20662;-79
2021/08/25 07:46:38;;;;;;;8.03;7.07;;;16.70;98.10;;;;;;5076679;28;20715;-79
2021/08/25 07:49:06;;;;;;;9.33;7.40;;;16.70;98.50;;;;;;5085156;28;21510;-79
2021/08/25 07:51:35;;;;;;;8.17;7.37;;;16.70;97.80;;;;;;5083279;28;20666;-79
2021/08/25 07:54:02;;;;;;;8.00;7.20;;;16.70;98.20;;;;;;5082517;28;20718;-79
2021/08/25 07:56:29;;;;;;;8.07;7.30;;;16.70;97.50;;;;;;5088500;28;20608;-79
2021/08/25 07:58:56;;;;;;;8.17;7.37;;;16.80;98.80;;;;;;5081621;28;21027;-80
2021/08/25 08:01:25;;;;;;;9.10;7.50;;;17.00;97.80;;;;;;5089360;28;20629;-81
2021/08/25 08:03:52;;;;;;;7.50;6.80;;;17.20;97.90;;;;;;5090623;28;20605;-80
2021/08/25 08:06:19;;;;;;;8.73;7.13;;;17.30;96.90;;;;;;5091263;28;21176;-79
2021/08/25 08:08:46;;;;;;;7.47;6.77;;;17.40;96.50;;;;;;5091157;28;20661;-81
2021/08/25 08:11:13;;;;;;;7.30;6.60;;;17.40;95.60;;;;;;5090852;28;20639;-80
2021/08/25 08:13:40;;;;;;;6.63;6.03;;;17.50;96.20;;;;;;5080654;28;20619;-80
2021/08/25 08:16:08;;;;;;;8.00;7.30;;;17.40;96.00;;;;;;5081331;28;20626;-80
2021/08/25 08:18:40;;;;;;;7.03;6.23;;;17.40;96.70;;;;;;5074047;28;20660;-82
2021/08/25 08:21:07;;;;;;;9.40;8.50;;;17.50;97.50;;;;;;5080017;28;20655;-81
2021/08/25 08:23:35;;;;;;;9.50;8.57;;;17.50;98.50;;;;;;5081159;28;20680;-81
2021/08/25 08:26:02;;;;;;;12.00;9.50;;;17.50;99.20;;;;;;5080489;28;21019;-81
2021/08/25 08:28:29;;;;;;;9.97;8.97;;;17.60;98.80;;;;;;5082654;28;20660;-81
2021/08/25 08:30:56;;;;;;;9.20;8.37;;;17.40;98.20;;;;;;5080603;28;21199;-81
2021/08/25 08:33:23;;;;;;;8.90;8.00;;;17.20;98.50;;;;;;5079784;28;20628;-80
2021/08/25 08:35:51;;;;;;;10.37;9.03;;;17.00;98.70;;;;;;5075162;28;20660;-80
2021/08/25 08:38:18;;;;;;;10.27;9.20;;;16.90;99.50;;;;;;5079204;28;20623;-79
2021/08/25 08:40:45;;;;;;;10.10;9.27;;;16.80;99.90;;;;;;5078176;28;20645;-80
2021/08/25 08:43:12;;;;;;;9.27;8.33;;;17.20;99.70;;;;;;5080374;28;20617;-80
2021/08/25 08:45:41;;;;;;;7.83;7.13;;;17.30;99.70;;;;;;5081217;28;20657;-79
2021/08/25 08:48:16;;;;;;;8.33;7.53;;;17.10;98.50;;;;;;5078084;28;20679;-80
2021/08/25 08:50:46;;;;;;;8.50;7.73;;;17.10;99.30;;;;;;5077955;28;21155;-81
2021/08/25 08:53:17;;;;;;;7.97;7.33;;;17.20;99.20;;;;;;5081032;28;21219;-81
2021/08/25 08:55:45;;;;;;;7.97;6.77;;;17.40;98.80;;;;;;5075020;28;20597;-82
2021/08/25 08:58:19;;;;;;;9.23;8.40;;;17.50;98.20;;;;;;5080514;28;21362;-81
2021/08/25 09:00:46;;;;;;;8.97;8.27;;;17.70;98.60;;;;;;5079966;28;20604;-79
2021/08/25 09:03:21;;;;;;;9.43;8.30;;;17.60;98.00;;;;;;5082375;28;21026;-81
2021/08/25 09:05:55;;;;;;;9.07;7.43;;;17.70;98.10;;;;;;5080196;28;21005;-82
2021/08/25 09:08:28;;;;;;;8.03;7.23;;;17.80;97.50;;;;;;5075889;28;20628;-80
2021/08/25 09:11:03;;;;;;;7.20;6.60;;;17.70;97.30;;;;;;5078019;28;21263;-79
2021/08/25 09:13:38;;;;;;;8.00;7.30;;;17.70;97.30;;;;;;5078966;28;20624;-82
2021/08/25 09:16:07;;;;;;;7.70;7.00;;;17.70;97.40;;;;;;5079668;28;20626;-80
2021/08/25 09:18:58;;;;;;;7.10;6.40;;;17.90;97.90;;;;;;5077008;28;20701;-82
2021/08/25 09:21:45;;;;;;;6.37;5.77;;;18.30;95.60;;;;;;5081200;28;20667;-83
2021/08/25 09:24:44;;;;;;;5.80;5.30;;;18.60;94.20;;;;;;5080085;28;20732;-81
2021/08/25 09:27:21;;;;;;;5.27;4.77;;;18.80;93.90;;;;;;5079409;28;20674;-82
2021/08/25 09:30:00;;;;;;;7.40;6.70;;;18.90;92.90;;;;;;5076208;28;20669;-81
2021/08/25 09:32:37;;;;;;;6.20;5.60;;;18.90;93.70;;;;;;5078405;28;20618;-83
2021/08/25 09:35:05;;;;;;;6.50;5.93;;;19.00;93.50;;;;;;5076737;28;20617;-81
2021/08/25 09:37:33;;;;;;;6.57;5.97;;;19.20;93.60;;;;;;5068570;28;20607;-80
2021/08/25 09:40:06;;;;;;;7.03;6.33;;;19.20;93.20;;;;;;5070902;28;20629;-82
2021/08/25 09:42:42;;;;;;;6.70;6.00;;;19.30;92.80;;;;;;5069222;28;20617;-81
2021/08/25 09:45:09;;;;;;;5.00;4.60;;;19.40;91.70;;;;;;5090795;28;20627;-81
2021/08/25 09:47:47;;;;;;;5.17;4.77;;;19.50;90.40;;;;;;5093539;28;20976;-82
2021/08/25 09:50:16;;;;;;;8.77;6.10;;;19.60;90.30;;;;;;5093707;28;20700;-80
2021/08/25 09:52:44;;;;;;;6.77;6.17;;;19.70;89.70;;;;;;5092773;28;20670;-81
2021/08/25 09:55:13;;;;;;;7.93;6.10;;;19.70;89.50;;;;;;5092876;28;20723;-80
2021/08/25 09:57:42;;;;;;;7.47;6.77;;;19.60;90.60;;;;;;5087156;28;20644;-81
2021/08/25 10:00:11;;;;;;;5.80;5.30;;;19.70;91.60;;;;;;5074957;28;20678;-82
2021/08/25 10:02:38;;;;;;;7.53;6.00;;;19.90;91.10;;;;;;5072282;28;20678;-82
2021/08/25 10:05:06;;;;;;;8.13;6.13;;;19.90;90.00;;;;;;5073765;28;20621;-81
2021/08/25 10:07:34;;;;;;;7.43;6.10;;;20.10;90.50;;;;;;5087495;28;20612;-81
2021/08/25 10:10:01;;;;;;;5.70;5.20;;;20.20;90.80;;;;;;5088636;28;20660;-80
2021/08/25 10:12:29;;;;;;;6.20;5.60;;;20.30;90.20;;;;;;5072619;28;20621;-80
2021/08/25 10:14:56;;;;;;;6.23;5.63;;;20.30;90.10;;;;;;5072357;28;20613;-80
2021/08/25 10:17:40;;;;;;;6.27;5.77;;;20.40;87.20;;;;;;5072946;28;20617;-80
2021/08/25 10:20:34;;;;;;;6.60;5.10;;;20.50;88.40;;;;;;5069708;28;20652;-81
2021/08/25 10:23:03;;;;;;;5.50;5.10;;;20.70;87.10;;;;;;5088399;28;20661;-81
2021/08/25 10:25:31;;;;;;;7.20;5.53;;;20.80;85.20;;;;;;5092100;28;20625;-81
2021/08/25 10:28:04;;;;;;;6.50;6.00;;;20.90;80.80;;;;;;5093322;28;20610;-81
2021/08/25 10:30:32;;;;;;;6.77;5.63;;;21.10;83.00;;;;;;5093100;28;20781;-80
2021/08/25 10:33:13;;;;;;;8.70;7.37;;;21.20;85.10;;;;;;5091856;28;20627;-82
2021/08/25 10:35:42;;;;;;;6.00;5.50;;;21.30;83.40;;;;;;5090386;28;20733;-82
2021/08/25 10:38:34;;;;;;;5.50;5.00;;;21.40;82.10;;;;;;5088335;28;20672;-81
2021/08/25 10:41:23;;;;;;;5.63;5.13;;;21.60;81.80;;;;;;5091751;28;20739;-81
2021/08/25 10:43:54;;;;;;;5.13;4.63;;;21.70;76.70;;;;;;5091333;28;20666;-82
2021/08/25 10:46:21;;;;;;;6.90;5.07;;;21.60;72.40;;;;;;5090986;28;20629;-81
2021/08/25 10:48:53;;;;;;;4.07;3.67;;;21.40;74.90;;;;;;5091509;28;20962;-80
2021/08/25 10:51:37;;;;;;;4.80;4.33;;;21.30;73.80;;;;;;5091420;28;20674;-81
2021/08/25 10:54:13;;;;;;;4.73;4.33;;;21.30;74.50;;;;;;5089995;28;20626;-80
2021/08/25 10:56:47;;;;;;;5.00;4.43;;;21.40;71.20;;;;;;5080127;28;20631;-82
2021/08/25 10:59:21;;;;;;;5.07;4.57;;;21.40;72.20;;;;;;5082254;28;20618;-82
2021/08/25 11:01:49;;;;;;;4.93;4.43;;;21.40;72.10;;;;;;5091389;28;21167;-81
2021/08/25 11:04:17;;;;;;;5.33;4.83;;;21.70;73.40;;;;;;5092189;28;20599;-81
2021/08/25 11:06:46;;;;;;;5.20;4.70;;;21.70;70.00;;;;;;5091203;28;21163;-81
2021/08/25 11:09:28;;;;;;;5.03;4.53;;;21.90;72.80;;;;;;5090378;28;20650;-81
2021/08/25 11:12:00;;;;;;;4.80;4.30;;;22.00;78.20;;;;;;5090890;28;20611;-81
2021/08/25 11:14:34;;;;;;;5.83;5.17;;;22.10;74.50;;;;;;5092241;28;21183;-80
2021/08/25 11:17:07;;;;;;;6.20;5.67;;;21.80;75.90;;;;;;5073475;28;20671;-81
2021/08/25 11:19:36;;;;;;;5.47;4.80;;;21.60;74.50;;;;;;5088438;28;20635;-80
2021/08/25 11:22:05;;;;;;;5.60;4.27;;;21.70;71.90;;;;;;5091446;28;20634;-81
2021/08/25 11:24:34;;;;;;;5.30;4.90;;;21.70;72.40;;;;;;5084025;28;20620;-81
2021/08/25 11:27:01;;;;;;;4.80;4.37;;;21.90;71.40;;;;;;5074841;28;20658;-81
2021/08/25 11:29:30;;;;;;;4.73;4.33;;;22.10;68.30;;;;;;5078684;28;20652;-81
2021/08/25 11:32:03;;;;;;;5.73;4.33;;;22.50;68.00;;;;;;5079653;28;20647;-82
2021/08/25 11:34:31;;;;;;;5.00;4.50;;;22.60;66.00;;;;;;5081420;28;21206;-81
2021/08/25 11:37:02;;;;;;;4.40;4.00;;;22.70;66.30;;;;;;5081996;28;20650;-81
2021/08/25 11:39:29;;;;;;;5.47;4.97;;;22.90;68.00;;;;;;5078478;28;21198;-82
2021/08/25 11:41:57;;;;;;;4.93;4.43;;;23.00;67.00;;;;;;5077707;28;20668;-82
2021/08/25 11:44:46;;;;;;;5.30;4.57;;;23.50;65.30;;;;;;5081504;28;20612;-83
2021/08/25 11:47:18;;;;;;;5.50;5.00;;;23.80;64.30;;;;;;5080762;28;20616;-82
2021/08/25 11:49:47;;;;;;;4.23;3.93;;;24.20;64.20;;;;;;5081105;28;20763;-82
2021/08/25 11:52:15;;;;;;;5.90;4.87;;;24.60;61.60;;;;;;5080777;28;20598;-82
2021/08/25 11:54:44;;;;;;;4.63;4.23;;;25.00;59.80;;;;;;5071618;28;20699;-81
2021/08/25 11:57:15;;;;;;;4.77;4.37;;;25.40;62.70;;;;;;5075799;28;20630;-84
2021/08/25 12:03:03;;;;;;;7.13;5.30;;;27.20;56.60;;;;;;5078944;28;20992;-82
2021/08/25 12:05:32;;;;;;;5.53;5.13;;;27.90;56.40;;;;;;5069905;28;20771;-83
2021/08/25 12:08:07;;;;;;;5.20;4.80;;;28.30;56.80;;;;;;5077358;28;20626;-82
2021/08/25 12:10:35;;;;;;;4.17;3.87;;;29.10;56.20;;;;;;5075769;28;20656;-82
2021/08/25 12:13:02;;;;;;;4.33;4.03;;;29.50;53.30;;;;;;5082896;28;20727;-82
2021/08/25 12:15:51;;;;;;;4.13;3.83;;;30.20;51.40;;;;;;5076996;28;21039;-82
2021/08/25 12:18:20;;;;;;;5.30;4.90;;;30.20;51.50;;;;;;5069558;28;21178;-82
2021/08/25 12:20:48;;;;;;;4.70;4.40;;;30.20;50.00;;;;;;5072135;28;21173;-82
2021/08/25 12:23:18;;;;;;;4.83;4.43;;;30.60;49.10;;;;;;5071119;28;20613;-82
2021/08/25 12:25:47;;;;;;;5.00;4.63;;;30.00;48.40;;;;;;5081968;28;20616;-82
2021/08/25 12:28:15;;;;;;;5.57;5.07;;;30.30;48.20;;;;;;5084983;28;20683;-82
2021/08/25 12:30:45;;;;;;;5.13;4.73;;;30.30;49.20;;;;;;5090477;28;20652;-82
2021/08/25 12:33:26;;;;;;;4.67;4.37;;;29.50;49.10;;;;;;5091054;28;20651;-83
2021/08/25 12:35:53;;;;;;;5.57;5.07;;;28.90;48.50;;;;;;5091058;28;20631;-83
2021/08/25 12:38:49;;;;;;;4.23;3.93;;;29.10;47.90;;;;;;5079921;28;20956;-83
2021/08/25 12:41:23;;;;;;;4.70;3.97;;;29.90;46.90;;;;;;5078597;28;20974;-85
2021/08/25 12:43:52;;;;;;;4.70;4.33;;;30.40;46.90;;;;;;5079817;28;20629;-84
2021/08/25 12:46:20;;;;;;;5.23;4.80;;;30.80;45.30;;;;;;5077703;28;20633;-84
2021/08/25 12:48:47;;;;;;;5.30;4.80;;;31.10;45.80;;;;;;5079829;28;20604;-83
2021/08/25 12:51:24;;;;;;;5.40;4.93;;;31.20;46.20;;;;;;5075678;28;20663;-82